Aérodrome :
LOGIN :

S'inscrire | Disclaimer

   EN    FR    IT 

 










Légende :    VFR   VFR Marginal   IFR   IFR Intensif   IFR Très Intensif
Visi : 
Plafond : 
>= 8 km
>= 3000ft
5 à 8 km
1000 à 3000 ft
1500m à 5 km
500 à 1000 ft
800 à 1500m
200 à 500 ft
< 800m
< 200 ft
Symboles :   Orages  Brouillard  Fortes neiges  Fortes précipitations  Vent > 20 kt
SIGMETs :   Divers  Orages  Givrage  Turbulence  Onde Orograph.  Cendres Volcan.






- Altitude de l'aérodrome : 252 ft
- Code IATA : BDU


ENDU - Bardufoss

DERNIER METAR :
  • 192120Z 27005KT 9999 FEW014 SCT030 BKN040 16/14 Q1017 RMK WIND 1100FT 31008KT WIND 2200FT 29009KT

METARs EXPIRÉS :
  • 192050Z 26004KT 230V290 9999 FEW020 SCT035 BKN050 17/14 Q1016 RMK WIND 1100FT 30008KT WIND 2200FT 28007KT
  • 192020Z 27008KT 9999 FEW020 SCT035 BKN055 17/14 Q1016 RMK WIND 1100FT 30009KT WIND 2200FT 28007KT
  • 191950Z 27004KT 9999 FEW025 SCT035 BKN095 17/14 Q1016 RMK WIND 1100FT 30007KT WIND 2200FT 29006KT
  • 191920Z 27004KT 9999 FEW025 SCT045 BKN095 17/14 Q1016 RMK WIND 1100FT 30008KT WIND 2200FT 28007KT
  • 191850Z 26004KT 220V290 9999 FEW010 SCT040 BKN090 18/15 Q1016 RMK WIND 1100FT 29007KT WIND 2200FT 28006KT
  • 191820Z 27003KT 9999 FEW010 SCT040 BKN090 18/15 Q1016 RMK WIND 1100FT 30005KT WIND 2200FT 28007KT
  • 191750Z 25004KT 9999 FEW010 SCT040TCU BKN070 19/15 Q1016 RMK WIND 1100FT 29005KT WIND 2200FT 29008KT
  • 191720Z 24003KT 200V260 9999 FEW010 SCT040 BKN070 19/15 Q1016 RMK WIND 1100FT 30008KT WIND 2200FT 28009KT
  • 191650Z 25005KT 220V280 9999 FEW010 BKN040 19/16 Q1016 NOSIG RMK WIND 1100FT 31009KT WIND 2200FT 30011KT

TAF TAF ENDU
Valide du 19 à 18h jusqu'au 20 à 18h UTC


191700Z 1918/2018 28005KT 9999 FEW005 BKN025
TEMPO 1922/2006 BKN014



MET'MAP, la Météo Aéronautique d'un coup d'oeil ! - Copyright ORBIFLY Décembre 2007 - Disclaimer

ORBIFLY MET'MAP TEAM :

Programmation & Développement : Alexandra Zaïnal
Sur une idée originale de : Baudouin d'Aumeries
Soutien technique & logistique : Manuel Goepfert
Assistance : Marc-Olivier Méhu




SOURCES & CREDITS :

   NOAA